Time;durP1;ratioP1;P1;durP2;ratioP2;P2;SDS_P1;SDS_P2;PMS_P1;PMS_P2;Temp;Humidity;BMP_temperature;BMP_pressure;BME280_temperature;BME280_humidity;BME280_pressure;Samples;Min_cycle;Max_cycle;Signal;HPM_P1;HPM_P2
2022/08/16 00:01:35;;;;;;;;;;;;;;;26.94;47.70;100324.03;7285346;19;153168;-62
2022/08/16 00:04:07;;;;;;;;;;;;;;;26.99;47.75;100322.94;7280774;19;154240;-62
2022/08/16 00:06:36;;;;;;;;;;;;;;;26.90;47.71;100320.28;7284760;19;151913;-62
2022/08/16 00:09:05;;;;;;;;;;;;;;;26.96;47.43;100318.00;7285362;19;152763;-62
2022/08/16 00:11:31;;;;;;;;;;;;;;;26.93;46.88;100311.06;7282691;19;153936;-62
2022/08/16 00:13:58;;;;;;;;;;;;;;;26.90;47.33;100314.63;7283316;19;152184;-62
2022/08/16 00:16:28;;;;;;;;;;;;;;;26.94;47.15;100306.19;7286042;19;152394;-62
2022/08/16 00:19:16;;;;;;;;;;;;;;;26.90;47.21;100314.63;7277750;19;156356;-62
2022/08/16 00:21:43;;;;;;;;;;;;;;;26.88;47.23;100310.50;7291213;19;151939;-62
2022/08/16 00:24:10;;;;;;;;;;;;;;;26.84;47.71;100293.38;7282034;19;154357;-62
2022/08/16 00:26:38;;;;;;;;;;;;;;;26.85;47.20;100297.88;7283929;19;152026;-62
2022/08/16 00:29:12;;;;;;;;;;;;;;;26.88;46.98;100310.50;7283573;19;153288;-62
2022/08/16 00:31:41;;;;;;;;;;;;;;;26.82;47.01;100306.28;7281361;19;154382;-62
2022/08/16 00:34:26;;;;;;;;;;;;;;;26.83;46.93;100313.59;7280415;19;152790;-62
2022/08/16 00:37:10;;;;;;;;;;;;;;;26.80;47.00;100317.16;7282483;19;153546;-62
2022/08/16 00:39:36;;;;;;;;;;;;;;;26.74;47.05;100316.63;7281790;19;152849;-62
2022/08/16 00:42:04;;;;;;;;;;;;;;;26.70;47.31;100307.22;7282692;19;153593;-62
2022/08/16 00:44:36;;;;;;;;;;;;;;;26.73;47.13;100294.28;7290070;19;152021;-62
2022/08/16 00:47:07;;;;;;;;;;;;;;;26.74;46.85;100296.78;7285449;19;153047;-62
2022/08/16 00:49:34;;;;;;;;;;;;;;;26.75;47.08;100301.25;7282434;19;152664;-63
2022/08/16 00:52:10;;;;;;;;;;;;;;;26.76;47.25;100304.91;7283065;19;153797;-62
2022/08/16 00:54:55;;;;;;;;;;;;;;;26.74;46.92;100293.94;7284908;19;152219;-62
2022/08/16 00:57:22;;;;;;;;;;;;;;;26.74;47.20;100291.09;7285306;19;153460;-62
2022/08/16 00:59:49;;;;;;;;;;;;;;;26.75;47.17;100292.75;7284373;19;154406;-62
2022/08/16 01:02:26;;;;;;;;;;;;;;;26.70;47.22;100293.03;7285469;19;152701;-62
2022/08/16 01:04:57;;;;;;;;;;;;;;;26.73;47.00;100292.28;7285082;19;152841;-62
2022/08/16 01:07:39;;;;;;;;;;;;;;;26.75;46.79;100289.94;7284169;19;152537;-62
2022/08/16 01:10:22;;;;;;;;;;;;;;;26.73;46.69;100288.63;7282404;19;152742;-62
2022/08/16 01:13:11;;;;;;;;;;;;;;;26.70;46.85;100298.69;7281016;19;152823;-62
2022/08/16 01:15:45;;;;;;;;;;;;;;;26.73;47.09;100291.47;7281937;19;152570;-62
2022/08/16 01:18:20;;;;;;;;;;;;;;;26.71;46.76;100303.16;7282960;19;152704;-62
2022/08/16 01:21:06;;;;;;;;;;;;;;;26.71;46.85;100296.69;7280466;19;153407;-62
2022/08/16 01:23:48;;;;;;;;;;;;;;;26.64;47.21;100302.16;7281214;19;152404;-62
2022/08/16 01:26:30;;;;;;;;;;;;;;;26.66;47.22;100296.97;7283259;19;152421;-62
2022/08/16 01:29:03;;;;;;;;;;;;;;;26.64;47.20;100291.66;7287347;19;154781;-62
2022/08/16 01:31:35;;;;;;;;;;;;;;;26.74;46.79;100299.63;7284336;19;152567;-62
2022/08/16 01:34:08;;;;;;;;;;;;;;;26.66;47.47;100289.28;7280291;19;152731;-62
2022/08/16 01:36:58;;;;;;;;;;;;;;;26.65;47.42;100283.97;7283424;19;152563;-62
2022/08/16 01:39:27;;;;;;;;;;;;;;;26.66;47.34;100288.47;7279871;19;153593;-62
2022/08/16 01:41:54;;;;;;;;;;;;;;;26.67;47.46;100304.25;7281201;19;155373;-62
2022/08/16 01:44:21;;;;;;;;;;;;;;;26.61;47.76;100298.06;7281646;19;152725;-62
2022/08/16 01:47:03;;;;;;;;;;;;;;;26.67;47.32;100307.91;7284050;19;151945;-62
2022/08/16 01:49:32;;;;;;;;;;;;;;;26.59;47.63;100300.44;7278296;19;154619;-62
2022/08/16 01:52:19;;;;;;;;;;;;;;;26.59;47.92;100308.94;7289742;19;151941;-62
2022/08/16 01:54:56;;;;;;;;;;;;;;;26.52;48.04;100303.91;7281868;19;153683;-62
2022/08/16 01:57:23;;;;;;;;;;;;;;;26.57;48.33;100302.00;7282829;19;152091;-62
2022/08/16 01:59:50;;;;;;;;;;;;;;;26.52;48.50;100297.41;7280774;19;152899;-62
2022/08/16 02:02:23;;;;;;;;;;;;;;;26.51;48.62;100301.44;7280646;19;153947;-62
2022/08/16 02:04:54;;;;;;;;;;;;;;;26.50;48.35;100302.63;7276617;19;153577;-62
2022/08/16 02:07:22;;;;;;;;;;;;;;;26.55;48.15;100308.03;7280978;19;153538;-62
2022/08/16 02:09:50;;;;;;;;;;;;;;;26.54;48.70;100303.53;7281654;19;154370;-62
2022/08/16 02:12:26;;;;;;;;;;;;;;;26.48;48.62;100311.47;7281838;19;152713;-62
2022/08/16 02:15:14;;;;;;;;;;;;;;;26.52;48.85;100312.41;7289105;19;153962;-62
2022/08/16 02:17:51;;;;;;;;;;;;;;;26.51;48.68;100310.75;7282018;19;152963;-62
2022/08/16 02:20:18;;;;;;;;;;;;;;;26.48;49.00;100316.34;7279294;19;154284;-62
2022/08/16 02:22:52;;;;;;;;;;;;;;;26.48;49.23;100302.19;7279587;19;154336;-62
2022/08/16 02:25:21;;;;;;;;;;;;;;;26.50;49.09;100299.78;7278094;19;153222;-62
2022/08/16 02:27:48;;;;;;;;;;;;;;;26.48;49.38;100291.63;7281505;19;152856;-62
2022/08/16 02:30:20;;;;;;;;;;;;;;;26.48;49.17;100285.19;7281473;19;154312;-62
2022/08/16 02:33:07;;;;;;;;;;;;;;;26.44;49.57;100276.56;7281754;19;151840;-62
2022/08/16 02:35:35;;;;;;;;;;;;;;;26.49;49.46;100281.97;7277788;19;152978;-62
2022/08/16 02:38:21;;;;;;;;;;;;;;;26.46;49.90;100288.38;7287257;19;157730;-62
2022/08/16 02:40:49;;;;;;;;;;;;;;;26.54;49.39;100280.88;7280220;19;152493;-62
2022/08/16 02:43:19;;;;;;;;;;;;;;;26.46;49.73;100274.19;7279580;19;153608;-62
2022/08/16 02:45:52;;;;;;;;;;;;;;;26.46;49.55;100282.69;7281907;19;151884;-62
2022/08/16 02:48:20;;;;;;;;;;;;;;;26.47;49.92;100290.00;7280373;19;153344;-62
2022/08/16 02:51:00;;;;;;;;;;;;;;;26.45;49.89;100298.03;7280594;19;152749;-62
2022/08/16 02:53:34;;;;;;;;;;;;;;;26.47;49.99;100307.03;7287497;19;152257;-62
2022/08/16 02:56:01;;;;;;;;;;;;;;;26.49;50.26;100310.28;7287753;19;152490;-62
2022/08/16 02:58:30;;;;;;;;;;;;;;;26.45;50.09;100312.22;7286266;19;153368;-61
2022/08/16 03:00:57;;;;;;;;;;;;;;;26.45;50.21;100302.88;7295381;19;152329;-62
2022/08/16 03:03:25;;;;;;;;;;;;;;;26.39;50.17;100299.50;7284636;19;153712;-62
2022/08/16 03:06:13;;;;;;;;;;;;;;;26.40;50.40;100301.16;7286356;19;152122;-62
2022/08/16 03:09:03;;;;;;;;;;;;;;;26.42;50.64;100292.28;7285630;19;152249;-62
2022/08/16 03:11:31;;;;;;;;;;;;;;;26.45;50.45;100291.56;7285359;19;154006;-62
2022/08/16 03:14:01;;;;;;;;;;;;;;;26.42;50.65;100298.78;7285604;19;151978;-62
2022/08/16 03:16:33;;;;;;;;;;;;;;;26.40;50.61;100289.81;7287423;19;152698;-62
2022/08/16 03:19:20;;;;;;;;;;;;;;;26.41;50.74;100291.47;7281020;19;156562;-62
2022/08/16 03:21:48;;;;;;;;;;;;;;;26.39;50.29;100295.88;7295118;19;152153;-61
2022/08/16 03:24:17;;;;;;;;;;;;;;;26.42;50.31;100293.13;7285185;19;154100;-62
2022/08/16 03:26:58;;;;;;;;;;;;;;;26.42;50.83;100292.28;7288018;19;151869;-62
2022/08/16 03:29:30;;;;;;;;;;;;;;;26.40;50.78;100295.47;7287055;19;153116;-62
2022/08/16 03:31:57;;;;;;;;;;;;;;;26.44;50.88;100304.91;7286098;19;153119;-62
2022/08/16 03:34:26;;;;;;;;;;;;;;;26.40;51.11;100305.97;7284148;19;152206;-62
2022/08/16 03:36:53;;;;;;;;;;;;;;;26.38;51.12;100308.38;7287054;19;152842;-62
2022/08/16 03:39:21;;;;;;;;;;;;;;;26.40;50.72;100306.81;7284286;19;153623;-62
2022/08/16 03:41:49;;;;;;;;;;;;;;;26.39;50.64;100299.50;7286293;19;152114;-62
2022/08/16 03:44:25;;;;;;;;;;;;;;;26.38;50.40;100300.69;7292727;19;155114;-62
2022/08/16 03:47:12;;;;;;;;;;;;;;;26.39;51.18;100298.69;7285437;19;152992;-62
2022/08/16 03:49:46;;;;;;;;;;;;;;;26.47;51.39;100294.84;7284105;19;152715;-62
2022/08/16 03:52:19;;;;;;;;;;;;;;;26.39;50.98;100301.53;7285124;19;152954;-62
2022/08/16 03:54:49;;;;;;;;;;;;;;;26.39;51.31;100296.66;7287072;19;151876;-62
2022/08/16 03:57:25;;;;;;;;;;;;;;;26.37;50.52;100295.38;7285816;19;152188;-62
2022/08/16 04:00:11;;;;;;;;;;;;;;;26.38;50.75;100292.22;7281734;19;153697;-62
2022/08/16 04:03:05;;;;;;;;;;;;;;;26.37;51.08;100287.72;7284016;19;151985;-62
2022/08/16 04:05:35;;;;;;;;;;;;;;;26.40;51.19;100298.31;7282465;19;152755;-62
2022/08/16 04:08:03;;;;;;;;;;;;;;;26.42;51.06;100297.97;7290963;19;152337;-61
2022/08/16 04:10:50;;;;;;;;;;;;;;;26.37;51.47;100296.22;7284749;19;153353;-62
2022/08/16 04:13:17;;;;;;;;;;;;;;;26.35;50.95;100301.41;7285195;19;154102;-62
2022/08/16 04:16:05;;;;;;;;;;;;;;;26.36;51.38;100310.72;7285541;19;152099;-62
2022/08/16 04:18:35;;;;;;;;;;;;;;;26.34;51.39;100315.97;7285624;19;152152;-62
2022/08/16 04:21:02;;;;;;;;;;;;;;;26.33;51.52;100317.13;7278898;19;153503;-62
2022/08/16 04:23:29;;;;;;;;;;;;;;;26.40;51.39;100308.81;7286779;19;153997;-62
2022/08/16 04:25:56;;;;;;;;;;;;;;;26.35;51.75;100309.91;7285434;19;153947;-62
2022/08/16 04:28:27;;;;;;;;;;;;;;;26.32;51.75;100316.31;7285177;19;154053;-62
2022/08/16 04:31:14;;;;;;;;;;;;;;;26.31;51.86;100316.66;7292678;19;152080;-62
2022/08/16 04:33:41;;;;;;;;;;;;;;;26.30;51.74;100317.88;7284435;19;152490;-62
2022/08/16 04:36:17;;;;;;;;;;;;;;;26.34;51.85;100318.78;7284388;19;153658;-62
2022/08/16 04:38:45;;;;;;;;;;;;;;;26.29;52.24;100316.22;7284114;19;153266;-62
2022/08/16 04:41:16;;;;;;;;;;;;;;;26.33;51.88;100325.63;7284694;19;152969;-62
2022/08/16 04:43:43;;;;;;;;;;;;;;;26.31;51.89;100325.16;7284842;19;151708;-62
2022/08/16 04:46:15;;;;;;;;;;;;;;;26.34;51.65;100325.28;7286540;19;153588;-62
2022/08/16 04:49:02;;;;;;;;;;;;;;;26.30;52.07;100323.53;7279814;19;155100;-62
2022/08/16 04:51:29;;;;;;;;;;;;;;;26.22;52.36;100330.16;7285152;19;151934;-62
2022/08/16 04:54:02;;;;;;;;;;;;;;;26.24;52.16;100333.47;7290993;19;153278;-62
2022/08/16 04:56:31;;;;;;;;;;;;;;;26.24;52.11;100337.13;7284455;19;152375;-62
2022/08/16 04:58:59;;;;;;;;;;;;;;;26.25;51.95;100338.78;7283752;19;153524;-62
2022/08/16 05:01:27;;;;;;;;;;;;;;;26.30;52.18;100335.66;7283764;19;154330;-62
2022/08/16 05:04:14;;;;;;;;;;;;;;;26.25;51.99;100335.13;7278362;19;152164;-62
2022/08/16 05:06:45;;;;;;;;;;;;;;;26.25;51.78;100337.97;7285313;19;152453;-62
2022/08/16 05:09:12;;;;;;;;;;;;;;;26.21;52.53;100337.84;7282075;19;153091;-62
2022/08/16 05:11:41;;;;;;;;;;;;;;;26.24;52.83;100333.47;7284194;19;153013;-62
2022/08/16 05:14:08;;;;;;;;;;;;;;;26.26;52.62;100333.91;7282348;19;152650;-62
2022/08/16 05:16:36;;;;;;;;;;;;;;;26.24;52.23;100336.31;7291449;19;152522;-62
2022/08/16 05:19:05;;;;;;;;;;;;;;;26.26;51.85;100340.41;7280509;19;152866;-62
2022/08/16 05:21:38;;;;;;;;;;;;;;;26.26;52.00;100336.75;7283498;19;154254;-62
2022/08/16 05:24:06;;;;;;;;;;;;;;;26.23;51.85;100341.16;7283654;19;152786;-62
2022/08/16 05:26:36;;;;;;;;;;;;;;;26.22;51.96;100339.50;7283294;19;153646;-62
2022/08/16 05:29:14;;;;;;;;;;;;;;;26.23;52.23;100351.66;7282200;19;154383;-62
2022/08/16 05:31:41;;;;;;;;;;;;;;;26.22;52.39;100344.34;7285685;19;152791;-62
2022/08/16 05:34:13;;;;;;;;;;;;;;;26.21;52.18;100349.16;7281256;19;153398;-62
2022/08/16 05:36:45;;;;;;;;;;;;;;;26.23;52.77;100358.13;7289322;19;153618;-62
2022/08/16 05:39:16;;;;;;;;;;;;;;;26.25;52.67;100364.28;7282439;19;153880;-62
2022/08/16 05:41:45;;;;;;;;;;;;;;;26.25;52.22;100363.47;7282242;19;152246;-62
2022/08/16 05:44:14;;;;;;;;;;;;;;;26.25;52.53;100363.47;7283941;19;152074;-62
2022/08/16 05:46:51;;;;;;;;;;;;;;;26.18;53.15;100357.53;7284095;19;153798;-62
2022/08/16 05:49:18;;;;;;;;;;;;;;;26.15;53.08;100361.09;7279100;19;154127;-62
2022/08/16 05:51:48;;;;;;;;;;;;;;;26.19;53.00;100365.69;7281171;19;152667;-62
2022/08/16 05:54:18;;;;;;;;;;;;;;;26.18;53.08;100364.03;7281426;19;153525;-62
2022/08/16 05:56:51;;;;;;;;;;;;;;;26.20;52.74;100367.34;7282428;19;153438;-62
2022/08/16 05:59:18;;;;;;;;;;;;;;;26.21;52.89;100362.53;7289732;19;152833;-62
2022/08/16 06:01:44;;;;;;;;;;;;;;;26.17;52.97;100362.38;7255779;19;154359;-61
2022/08/16 06:04:13;;;;;;;;;;;;;;;26.16;53.17;100363.59;7277051;19;154745;-62
2022/08/16 06:07:04;;;;;;;;;;;;;;;26.16;53.08;100366.41;7282330;19;156209;-62
2022/08/16 06:09:33;;;;;;;;;;;;;;;26.12;53.13;100368.28;7280133;19;154001;-61
2022/08/16 06:12:10;;;;;;;;;;;;;;;26.18;53.17;100363.22;7281424;19;153750;-62
2022/08/16 06:14:37;;;;;;;;;;;;;;;26.18;52.90;100349.03;7282147;19;153417;-62
2022/08/16 06:17:05;;;;;;;;;;;;;;;26.18;52.56;100349.03;7280487;19;153992;-62
2022/08/16 06:19:32;;;;;;;;;;;;;;;26.19;52.53;100356.38;7278694;19;152648;-62
2022/08/16 06:22:01;;;;;;;;;;;;;;;26.21;52.43;100359.69;7287909;19;155078;-62
2022/08/16 06:24:28;;;;;;;;;;;;;;;26.17;52.66;100355.88;7279974;19;151870;-62
2022/08/16 06:27:14;;;;;;;;;;;;;;;26.20;52.82;100364.50;7286773;19;154872;-61
2022/08/16 06:29:43;;;;;;;;;;;;;;;26.18;52.79;100360.38;7287018;19;153992;-61
2022/08/16 06:32:15;;;;;;;;;;;;;;;26.15;52.85;100367.59;7287926;19;152599;-62
2022/08/16 06:34:53;;;;;;;;;;;;;;;26.17;52.80;100375.72;7284716;19;152772;-62
2022/08/16 06:37:28;;;;;;;;;;;;;;;26.19;52.68;100376.19;7286544;19;153112;-62
2022/08/16 06:40:03;;;;;;;;;;;;;;;26.17;52.67;100381.38;7285208;19;152172;-62
2022/08/16 06:42:30;;;;;;;;;;;;;;;26.18;52.90;100371.69;7287975;19;153425;-62
2022/08/16 06:45:17;;;;;;;;;;;;;;;26.21;52.78;100373.88;7294499;19;157411;-62
2022/08/16 06:47:43;;;;;;;;;;;;;;;26.22;52.85;100381.16;7288006;19;152703;-62
2022/08/16 06:50:19;;;;;;;;;;;;;;;26.18;52.98;100380.19;7284174;19;154484;-62
2022/08/16 06:52:54;;;;;;;;;;;;;;;26.13;53.21;100384.09;7288571;19;152373;-62
2022/08/16 06:55:27;;;;;;;;;;;;;;;26.12;53.38;100385.28;7287087;19;152791;-62
2022/08/16 06:58:00;;;;;;;;;;;;;;;26.20;53.51;100380.69;7287027;19;153480;-62
2022/08/16 07:00:34;;;;;;;;;;;;;;;26.12;53.63;100388.13;7286645;19;152209;-62
2022/08/16 07:03:06;;;;;;;;;;;;;;;26.16;53.48;100391.06;7286520;19;152266;-62
2022/08/16 07:05:53;;;;;;;;;;;;;;;26.07;53.67;100391.22;7284404;19;156565;-62
2022/08/16 07:08:19;;;;;;;;;;;;;;;26.10;53.60;100394.16;7292672;19;152820;-62
2022/08/16 07:10:46;;;;;;;;;;;;;;;26.05;53.56;100402.91;7286037;19;153368;-62
2022/08/16 07:13:13;;;;;;;;;;;;;;;26.11;53.57;100403.47;7285353;19;152547;-62
2022/08/16 07:15:59;;;;;;;;;;;;;;;26.11;53.65;100400.66;7287378;19;155710;-62
2022/08/16 07:18:27;;;;;;;;;;;;;;;26.08;53.79;100409.84;7285052;19;153452;-62
2022/08/16 07:20:56;;;;;;;;;;;;;;;26.09;53.70;100398.16;7282703;19;152485;-62
2022/08/16 07:23:27;;;;;;;;;;;;;;;26.11;53.87;100392.16;7286710;19;153864;-62
2022/08/16 07:26:06;;;;;;;;;;;;;;;26.09;53.77;100389.69;7285088;19;154089;-62
2022/08/16 07:28:34;;;;;;;;;;;;;;;26.06;53.82;100392.41;7293897;19;152245;-62
2022/08/16 07:31:02;;;;;;;;;;;;;;;25.96;54.37;100390.91;7285050;19;152695;-62
2022/08/16 07:33:34;;;;;;;;;;;;;;;26.06;54.07;100393.25;7285300;19;152474;-62
2022/08/16 07:36:21;;;;;;;;;;;;;;;26.05;54.04;100391.59;7282457;19;154475;-61
2022/08/16 07:38:48;;;;;;;;;;;;;;;26.06;53.94;100390.41;7283055;19;152468;-62
2022/08/16 07:41:15;;;;;;;;;;;;;;;26.09;53.65;100391.69;7284050;19;153573;-62
2022/08/16 07:43:42;;;;;;;;;;;;;;;26.07;53.33;100392.03;7285839;19;153010;-62
2022/08/16 07:46:09;;;;;;;;;;;;;;;26.06;54.02;100401.72;7284460;19;153474;-62
2022/08/16 07:48:56;;;;;;;;;;;;;;;26.04;53.60;100406.91;7281954;19;152359;-62
2022/08/16 07:51:30;;;;;;;;;;;;;;;26.03;53.88;100413.75;7293371;19;152201;-62
2022/08/16 07:53:58;;;;;;;;;;;;;;;26.00;54.19;100431.47;7286186;19;153299;-62
2022/08/16 07:56:34;;;;;;;;;;;;;;;26.05;53.70;100431.22;7286800;19;153276;-62
2022/08/16 07:59:03;;;;;;;;;;;;;;;26.05;53.54;100436.88;7285107;19;153446;-62
2022/08/16 08:01:30;;;;;;;;;;;;;;;26.05;53.55;100442.56;7284636;19;152880;-62
2022/08/16 08:03:59;;;;;;;;;;;;;;;26.03;53.85;100439.25;7281135;19;152338;-62
2022/08/16 08:06:28;;;;;;;;;;;;;;;26.03;54.07;100444.06;7282720;19;154146;-62
2022/08/16 08:08:55;;;;;;;;;;;;;;;26.08;53.76;100438.16;7286858;19;152473;-62
2022/08/16 08:11:25;;;;;;;;;;;;;;;26.08;53.38;100430.50;7286039;19;152758;-62
2022/08/16 08:13:59;;;;;;;;;;;;;;;26.09;53.60;100428.50;7292206;19;153334;-62
2022/08/16 08:16:29;;;;;;;;;;;;;;;26.07;53.47;100434.50;7283810;19;154929;-62
2022/08/16 08:18:57;;;;;;;;;;;;;;;26.06;53.98;100447.03;7279557;19;153591;-62
2022/08/16 08:21:29;;;;;;;;;;;;;;;26.07;53.27;100448.66;7282321;19;152442;-62
2022/08/16 08:24:16;;;;;;;;;;;;;;;26.05;53.60;100453.03;7283739;19;155206;-62
2022/08/16 08:26:43;;;;;;;;;;;;;;;26.07;53.26;100450.69;7283544;19;153508;-62
2022/08/16 08:29:16;;;;;;;;;;;;;;;26.22;52.50;100454.78;7280819;19;152623;-62
2022/08/16 08:31:48;;;;;;;;;;;;;;;26.12;52.70;100465.41;7285478;19;155158;-62
2022/08/16 08:34:17;;;;;;;;;;;;;;;26.08;52.81;100466.47;7280267;19;153631;-62
2022/08/16 08:36:44;;;;;;;;;;;;;;;26.10;52.96;100467.78;7290290;19;152453;-61
2022/08/16 08:39:10;;;;;;;;;;;;;;;26.07;52.94;100467.69;7280119;19;153164;-62
2022/08/16 08:41:40;;;;;;;;;;;;;;;26.05;53.25;100470.88;7281003;19;153235;-62
2022/08/16 08:44:07;;;;;;;;;;;;;;;26.05;53.17;100487.84;7284960;19;153276;-62
2022/08/16 08:46:57;;;;;;;;;;;;;;;26.03;52.92;100481.72;7283770;19;156422;-62
2022/08/16 08:49:26;;;;;;;;;;;;;;;26.03;53.17;100484.53;7280315;19;152454;-62
2022/08/16 08:52:14;;;;;;;;;;;;;;;26.05;53.42;100498.34;7281339;19;155562;-61
2022/08/16 08:55:04;;;;;;;;;;;;;;;26.04;53.55;100496.69;7281248;19;156599;-62
2022/08/16 08:57:37;;;;;;;;;;;;;;;26.03;53.35;100498.69;7284540;19;154020;-62
2022/08/16 09:00:04;;;;;;;;;;;;;;;26.03;53.06;100501.53;7291465;19;152460;-62
2022/08/16 09:02:38;;;;;;;;;;;;;;;26.11;53.35;100502.59;7282030;19;152857;-62
2022/08/16 09:05:06;;;;;;;;;;;;;;;26.10;53.08;100503.78;7281749;19;152943;-62
2022/08/16 09:07:41;;;;;;;;;;;;;;;26.10;53.42;100500.94;7283007;19;152785;-62
2022/08/16 09:10:29;;;;;;;;;;;;;;;26.08;52.86;100503.28;7279803;19;152559;-62
2022/08/16 09:12:56;;;;;;;;;;;;;;;26.10;53.18;100501.78;7277008;19;153021;-62
2022/08/16 09:15:24;;;;;;;;;;;;;;;26.07;53.26;100508.13;7283049;19;154110;-62
2022/08/16 09:17:58;;;;;;;;;;;;;;;26.06;53.30;100509.34;7284571;19;152608;-62
2022/08/16 09:20:28;;;;;;;;;;;;;;;26.08;53.23;100508.94;7280733;19;152297;-62
2022/08/16 09:22:55;;;;;;;;;;;;;;;26.10;52.92;100506.59;7289538;19;153374;-62
2022/08/16 09:25:23;;;;;;;;;;;;;;;26.09;52.97;100516.28;7283490;19;154016;-62
2022/08/16 09:27:59;;;;;;;;;;;;;;;26.05;53.41;100513.34;7280137;19;153471;-62
2022/08/16 09:30:28;;;;;;;;;;;;;;;26.08;52.96;100517.44;7281293;19;152274;-62
2022/08/16 09:33:10;;;;;;;;;;;;;;;26.03;53.51;100521.34;7284106;19;152100;-62
2022/08/16 09:35:37;;;;;;;;;;;;;;;26.08;53.44;100518.28;7278203;19;153908;-62
2022/08/16 09:38:08;;;;;;;;;;;;;;;26.10;53.27;100527.25;7280944;19;153528;-62
2022/08/16 09:40:38;;;;;;;;;;;;;;;26.05;53.55;100523.84;7281729;19;151697;-62
2022/08/16 09:43:12;;;;;;;;;;;;;;;26.15;53.31;100531.03;7286625;19;153898;-62
2022/08/16 09:45:59;;;;;;;;;;;;;;;26.09;53.57;100519.94;7282583;19;156310;-62
2022/08/16 09:48:27;;;;;;;;;;;;;;;26.15;53.63;100516.84;7282304;19;154681;-62
2022/08/16 09:51:11;;;;;;;;;;;;;;;26.08;54.03;100517.44;7280724;19;152502;-62
2022/08/16 09:53:39;;;;;;;;;;;;;;;26.07;53.76;100510.97;7281868;19;154210;-62
2022/08/16 09:56:18;;;;;;;;;;;;;;;26.05;53.80;100519.00;7281352;19;154691;-62
2022/08/16 09:58:45;;;;;;;;;;;;;;;26.07;53.79;100518.66;7282623;19;152702;-61
2022/08/16 10:01:35;;;;;;;;;;;;;;;26.03;54.17;100532.69;7285659;19;155147;-62
2022/08/16 10:04:04;;;;;;;;;;;;;;;26.03;54.28;100524.19;7284102;19;153078;-62
2022/08/16 10:06:51;;;;;;;;;;;;;;;26.02;54.19;100536.72;7296127;19;152557;-62
2022/08/16 10:09:18;;;;;;;;;;;;;;;26.00;54.01;100530.56;7287201;19;153881;-62
2022/08/16 10:14:43;;;;;;;;;;;;;;;26.03;53.80;100531.84;7288564;19;152888;-62
2022/08/16 10:17:11;;;;;;;;;;;;;;;26.01;54.17;100545.56;7288059;19;154253;-62
2022/08/16 10:19:38;;;;;;;;;;;;;;;26.02;53.80;100548.03;7286533;19;153448;-62
2022/08/16 10:22:05;;;;;;;;;;;;;;;26.03;53.79;100546.00;7286991;19;152664;-62
2022/08/16 10:24:32;;;;;;;;;;;;;;;26.02;54.01;100552.88;7285634;19;153765;-62
2022/08/16 10:26:59;;;;;;;;;;;;;;;26.03;53.63;100548.84;7286801;19;152527;-62
2022/08/16 10:29:46;;;;;;;;;;;;;;;26.02;54.11;100550.03;7291995;19;156188;-62
2022/08/16 10:32:27;;;;;;;;;;;;;;;26.05;53.71;100552.16;7288960;19;151884;-62
2022/08/16 10:34:57;;;;;;;;;;;;;;;25.99;54.00;100557.22;7285849;19;153302;-62
2022/08/16 10:37:24;;;;;;;;;;;;;;;26.02;53.75;100562.19;7287503;19;153260;-62
2022/08/16 10:40:07;;;;;;;;;;;;;;;25.96;54.22;100563.59;7288766;19;151888;-62
2022/08/16 10:42:54;;;;;;;;;;;;;;;25.97;54.29;100568.09;7283456;19;156828;-62
2022/08/16 10:45:21;;;;;;;;;;;;;;;25.95;54.34;100587.44;7283358;19;152797;-62
2022/08/16 10:47:48;;;;;;;;;;;;;;;25.97;54.46;100582.25;7288082;19;153324;-62
2022/08/16 10:50:28;;;;;;;;;;;;;;;25.93;54.36;100595.47;7285310;19;154356;-62
2022/08/16 10:52:57;;;;;;;;;;;;;;;25.95;54.10;100595.09;7294226;19;153456;-62
2022/08/16 10:55:25;;;;;;;;;;;;;;;25.95;54.48;100600.75;7286103;19;152562;-62
2022/08/16 10:58:11;;;;;;;;;;;;;;;25.94;54.72;100604.75;7284167;19;152596;-62
2022/08/16 11:00:39;;;;;;;;;;;;;;;25.90;55.01;100603.81;7285887;19;152487;-62
2022/08/16 11:03:06;;;;;;;;;;;;;;;25.92;55.58;100601.47;7285384;19;153658;-62
2022/08/16 11:05:53;;;;;;;;;;;;;;;25.92;54.80;100604.31;7282908;19;157723;-62
2022/08/16 11:08:32;;;;;;;;;;;;;;;25.91;54.97;100597.81;7288483;19;152993;-62
2022/08/16 11:11:02;;;;;;;;;;;;;;;25.90;56.05;100598.16;7286669;19;152859;-62
2022/08/16 11:13:38;;;;;;;;;;;;;;;25.92;55.27;100601.47;7284427;19;156762;-62
2022/08/16 11:16:27;;;;;;;;;;;;;;;25.91;55.21;100599.81;7292468;19;151918;-62
2022/08/16 11:19:13;;;;;;;;;;;;;;;25.92;56.06;100604.31;7283746;19;157119;-62
2022/08/16 11:21:42;;;;;;;;;;;;;;;25.94;55.80;100611.25;7282974;19;152114;-62
2022/08/16 11:24:28;;;;;;;;;;;;;;;25.94;55.83;100622.56;7284905;19;153227;-62
2022/08/16 11:27:26;;;;;;;;;;;;;;;25.93;55.93;100632.28;7284640;19;153337;-62
2022/08/16 11:30:12;;;;;;;;;;;;;;;25.92;55.78;100622.13;7284583;19;152663;-62
2022/08/16 11:32:45;;;;;;;;;;;;;;;25.93;56.31;100629.44;7286930;19;153853;-62
2022/08/16 11:35:18;;;;;;;;;;;;;;;25.92;56.60;100619.28;7281608;19;154103;-62
2022/08/16 11:38:11;;;;;;;;;;;;;;;25.99;56.40;100621.50;7287175;19;152548;-62
2022/08/16 11:40:58;;;;;;;;;;;;;;;25.95;56.39;100624.22;7290041;19;156805;-62
2022/08/16 11:43:26;;;;;;;;;;;;;;;25.92;57.00;100618.47;7283496;19;152463;-62
2022/08/16 11:45:55;;;;;;;;;;;;;;;25.94;56.66;100616.91;7286569;19;151976;-62
2022/08/16 11:48:26;;;;;;;;;;;;;;;25.93;56.56;100614.47;7284439;19;154125;-62
2022/08/16 11:50:53;;;;;;;;;;;;;;;25.97;56.44;100621.88;7284034;19;153478;-62
2022/08/16 11:53:20;;;;;;;;;;;;;;;25.92;56.71;100622.13;7285952;19;153348;-62
2022/08/16 11:55:47;;;;;;;;;;;;;;;25.94;56.99;100621.75;7283621;19;154480;-62
2022/08/16 11:58:19;;;;;;;;;;;;;;;25.91;56.91;100622.47;7286202;19;152418;-62
2022/08/16 12:00:49;;;;;;;;;;;;;;;25.92;56.36;100629.78;7290950;19;152401;-62
2022/08/16 12:03:19;;;;;;;;;;;;;;;26.01;56.49;100633.31;7283876;19;151939;-62
2022/08/16 12:06:06;;;;;;;;;;;;;;;25.97;57.59;100638.03;7282370;19;153392;-62
2022/08/16 12:08:37;;;;;;;;;;;;;;;26.02;57.69;100627.31;7281586;19;154873;-62
2022/08/16 12:11:04;;;;;;;;;;;;;;;26.02;57.36;100613.16;7284391;19;152262;-62
2022/08/16 12:13:32;;;;;;;;;;;;;;;26.04;58.23;100612.78;7284202;19;151866;-62
2022/08/16 12:15:59;;;;;;;;;;;;;;;26.03;58.92;100609.13;7283340;19;152580;-62
2022/08/16 12:18:26;;;;;;;;;;;;;;;26.06;58.20;100608.44;7285137;19;154397;-62
2022/08/16 12:20:53;;;;;;;;;;;;;;;26.03;58.32;100606.28;7284066;19;155357;-62
2022/08/16 12:23:23;;;;;;;;;;;;;;;26.06;57.41;100608.44;7286598;19;153390;-62
2022/08/16 12:25:50;;;;;;;;;;;;;;;26.07;57.73;100603.59;7283511;19;153187;-62
2022/08/16 12:28:18;;;;;;;;;;;;;;;26.09;57.62;100607.72;7281730;19;153230;-62
2022/08/16 12:31:04;;;;;;;;;;;;;;;26.13;58.02;100613.50;7284318;19;154218;-62
2022/08/16 12:33:31;;;;;;;;;;;;;;;26.13;58.08;100605.81;7284152;19;153138;-62
2022/08/16 12:36:11;;;;;;;;;;;;;;;26.15;57.78;100608.31;7281493;19;153831;-62
2022/08/16 12:38:39;;;;;;;;;;;;;;;26.18;57.54;100604.75;7284327;19;153279;-62
2022/08/16 12:41:14;;;;;;;;;;;;;;;26.19;57.23;100608.44;7282645;19;151822;-62
2022/08/16 12:44:04;;;;;;;;;;;;;;;26.21;57.29;100600.44;7276903;19;152789;-62
2022/08/16 12:46:32;;;;;;;;;;;;;;;26.21;57.00;100598.41;7292116;19;153006;-62
2022/08/16 12:49:00;;;;;;;;;;;;;;;26.22;56.63;100597.22;7279576;19;154606;-62
2022/08/16 12:51:33;;;;;;;;;;;;;;;26.22;56.26;100602.06;7283685;19;152400;-62
2022/08/16 12:54:20;;;;;;;;;;;;;;;26.23;56.34;100601.72;7282821;19;155202;-62
2022/08/16 12:56:47;;;;;;;;;;;;;;;26.25;55.94;100593.72;7282977;19;153275;-62
2022/08/16 12:59:16;;;;;;;;;;;;;;;26.23;55.69;100598.91;7280938;19;152868;-62
2022/08/16 13:01:46;;;;;;;;;;;;;;;26.21;55.79;100592.75;7284830;19;153548;-62